Portada
METAR-TAF:

METAR-TAF

Aeropuertos :

Paraguaná, Venezuela

Aeropuerto Internacional Josefa Camejo

latitud: 11-47N, longitud: 070-09W, altitud: 23 m

METAR: falta

Hora: 01:54 (05:54 UTC)

Pronóstico

El informe se hizo hace 1 hora y 54 minutos, a las 04:00 UTC
Pronóstico válido del 17 a las 06 UTC al 18 a las 06 UTC
Viento 15 kt del este-noreste
Visibilidad 10 km o más
Nubes dispersas a una altura de 1300 ft
Temporalmente
del 17 a las 06 UTC al 17 a las 12 UTC
Viento 9 kt del noreste
Cielo nuboso a una altura de 1300 ft

TAF: SVJC 170400Z 1706/1806 07015KT 9999 SCT013 TX30/18Z TN27/Z08 TEMPO 1706/1712 05009KT BKN013

Observaciones y pronósticos meteorológicos de más de 4000 aeropuertos (mensajes METAR y TAF).

Los puntos amarillos y rojos representan las estaciones disponibles.

Ponga el ratón en el punto deseado para ver el nombre de la estación.

Haga clic para ver las observaciones y los pronósticos meteorológicos.

Para cambiar el mapa : haga clic en los botones verdes con una cruz de color negro para hacer un zoom, en el botón verde con un guión para alejar o en las flechas verdes para mapas adyacentes.


METAR-TAF: